Baring, WA (98224)

10:04 AM PST on December 09, 2016 (GMT -0800)
Riverwood | | Change Station
Active Advisory: Winter Weather Advisory

Elev 778 ft 47.76 °N, 121.48 °W | Updated 5 seconds ago

Snow
Snow
26.1 °F
Feels Like 26 °F
N
3.0
Wind Variable Wind from South

Today
High -- | Low -- °F
--% Chance of Precip.
Yesterday
High -- | Low -- °F
Precip. -- in
Pressure 29.99 in
Visibility 8.0 miles
Clouds Overcast 2200 ft
Windchill 26 °F
Dew Point 24 °F
Humidity 95%
Rainfall 0.00 in
Snow Depth Not available.
7:43 AM 4:13 PM
Waxing Gibbous, 76% visible
METAR KPAE 091753Z 12011G17KT 8SM -RA OVC022 01/M01 A2997 RMK AO2 RAB52 SLP153 P0000 60000 I6000 T00061006 10006 21006 53006
Pressure 29.99 in
Visibility 8.0 miles
Clouds Overcast 2200 ft
Windchill 26 °F
Dew Point 24 °F
Humidity 95%
Rainfall 0.00 in
Snow Depth Not available.
7:43 AM 4:13 PM
Waxing Gibbous, 76% visible
METAR KPAE 091753Z 12011G17KT 8SM -RA OVC022 01/M01 A2997 RMK AO2 RAB52 SLP153 P0000 60000 I6000 T00061006 10006 21006 53006

10-Day Weather Forecast

Almanac

Astronomy

Dec. 09, 2016 Rise Set
Actual Time
Civil Twilight
Nautical Twilight
Astronomical Twilight
Moon
Length of Visible Light
Length of Day
Tomorrow will be .
, % of the Moon is Illuminated

Today's Extremes

State Highs State Lows

Community

WunderPhotos

Upload Photos

1,956,499 photos uploaded!

WunderBlog® & News

Nearby

Air Quality

  Air Quality AQ Index Pollutant
Not available.

Snow Depth

Station Depth Elevation

Earthquake Activity

City Distance Mag. Time & Date
Minimum magnitude displayed is 2.5.

Coastal Water Temperatures

Place Temperature

Stations

Nearby Weather Stations

Station Location Temp. Windchill Dew Point Humidity Wind Precip. Elev Updated Type
                   

Watches & Warnings

Winter Weather Advisory
Issued: 8:35 AM PST Dec. 9, 2016 – National Weather Service

... Winter Weather Advisory remains in effect until 3 am PST
Saturday...

* timing... the threat of continued snowfall looks to remain over
the mountains of western Washington through the day today before
starting to taper off during the overnight hours tonight.
Increased east to southeast winds combined with expected snow may
reduce visibility at times.

* Accumulation... additional snow accumulations of 4 to 8 inches of
are expected through this evening.

* Main impact... travel will be affected as roads may become
slippery and winds combined with snow may reduce visibility at
times.

Precautionary/preparedness actions...

People planning on travel late Thursday afternoon and night should
expect winter driving conditions.